MiSS Allie — WDH2572 — position and weather

sailwx.info

Track history (hours):
 
Tides and Currents Weather Stations Pressure Air Temp Water Temp Dewpoint Dewpoint Depression Visibility Wind Speed Wind Dir Waves Ship Positions

MiSS Allie

Owner: UNITED MARINE OFFSHORE, LLC, MORGAN CITY, LA. More information available from US FCC via Universal Licensing System and Coast Guard Vessel Documentation Center.

Last reported at 2017-Sep-10 20:02 UTC. Time now 2017-Sep-20 18:35 UTC.
Position N 29°49' W 092°02'.
Warning: this ship's position is 9 days out of date.

Length 30 m; draft 2 m.

Type: Passenger vessel. MMSI: 367598990.

Date/timePositionNaut miles runAvg speedWind from/ knotsBaromVisibWave heightAir tempDewpointWater temp
2017-Sep-10 20:02N 29°49' W 092°02'1 8.3
2017-Sep-10 19:56N 29°49' W 092°03'3 8.1
2017-Sep-10 19:30N 29°48' W 092°07'4 7.7
2017-Sep-10 19:00N 29°46' W 092°11'4 8.0
2017-Sep-10 18:30N 29°44' W 092°14'58 4.0
2017-Sep-10 03:57N 29°46' W 093°21'  
2017-Sep-06 04:55N 29°34' W 090°57'4 8.6
2017-Sep-06 04:28N 29°32' W 090°53'4 8.5
2017-Sep-06 04:00N 29°32' W 090°48'3 6.6
2017-Sep-06 03:30N 29°34' W 090°45'2 3.9
2017-Sep-06 03:00N 29°34' W 090°43'0 0.0
2017-Sep-06 02:30N 29°34' W 090°43'0 0.6
2017-Sep-06 02:00N 29°34' W 090°43'3 6.9
2017-Sep-06 01:30N 29°30' W 090°43'  
2017-Sep-01 04:06N 29°22' W 090°43'  
Track history (hours):
 
Tides and Currents Weather Stations Pressure Air Temp Water Temp Dewpoint Dewpoint Depression Visibility Wind Speed Wind Dir Waves Ship Positions

MiSS Allie

Owner: UNITED MARINE OFFSHORE, LLC, MORGAN CITY, LA. More information available from US FCC via Universal Licensing System and Coast Guard Vessel Documentation Center.

Last reported at 2017-Sep-10 20:02 UTC. Time now 2017-Sep-20 18:35 UTC.
Position N 29°49' W 092°02'.
Warning: this ship's position is 9 days out of date.

Length 30 m; draft 2 m.

Type: Passenger vessel. MMSI: 367598990.

Date/timePositionNaut miles runAvg speedWind from/ knotsBaromVisibWave heightAir tempDewpointWater temp
2017-Sep-10 20:02N 29°49' W 092°02'1 8.3
2017-Sep-10 19:56N 29°49' W 092°03'3 8.1
2017-Sep-10 19:30N 29°48' W 092°07'4 7.7
2017-Sep-10 19:00N 29°46' W 092°11'4 8.0
2017-Sep-10 18:30N 29°44' W 092°14'58 4.0
2017-Sep-10 03:57N 29°46' W 093°21'  
2017-Sep-06 04:55N 29°34' W 090°57'4 8.6
2017-Sep-06 04:28N 29°32' W 090°53'4 8.5
2017-Sep-06 04:00N 29°32' W 090°48'3 6.6
2017-Sep-06 03:30N 29°34' W 090°45'2 3.9
2017-Sep-06 03:00N 29°34' W 090°43'0 0.0
2017-Sep-06 02:30N 29°34' W 090°43'0 0.6
2017-Sep-06 02:00N 29°34' W 090°43'3 6.9
2017-Sep-06 01:30N 29°30' W 090°43'  
2017-Sep-01 04:06N 29°22' W 090°43'  

Dump ship's entire track history